Terminal Aerodrome Forecast
Issued by NWS

Home | Current Version | Previous Version | Graphics & Text | Print | Product List | Glossary On
Versions: 1 2 3 4 5 6 7 8 9 10 11 12 13 14 15 16 17 18 19 20 21 22 23 24 25 26 27 28 29 30 31 32 33 34 35 36 37 38 39 40 41
000
FTUS43 KGRB 212300
TAFRHI
TAF
KRHI 212337Z 2200/2224 19010G15KT P6SM SCT015 BKN100 WS015/21040KT
     FM220400 21012G15KT P6SM BKN015 OVC100 WS015/21045KT
     FM220900 22011KT P6SM SCT003 OVC008 WS015/24040KT
      TEMPO 2209/2213 5SM -FZDZ BR BKN003
     FM221300 22008KT 5SM -FZDZ BR OVC005
     FM221900 21009KT 5SM -DZ BR OVC006=

USA.gov is the U.S. government's official web portal to all federal, state and local government web resources and services.